createdAt,value
2023-03-12T00:00:40.315Z,12.15
2023-03-12T00:03:34.861Z,6.57
2023-03-12T00:06:10.538Z,7.55
2023-03-12T00:08:45.491Z,7.05
2023-03-12T00:11:16.993Z,5.30
2023-03-12T00:14:03.025Z,4.88
2023-03-12T00:16:46.748Z,6.05
2023-03-12T00:19:27.834Z,7.05
2023-03-12T00:22:02.294Z,5.22
2023-03-12T00:24:58.211Z,6.32
2023-03-12T00:27:29.479Z,5.35
2023-03-12T00:30:00.982Z,5.53
2023-03-12T00:32:37.310Z,8.80
2023-03-12T00:35:09.283Z,7.60
2023-03-12T00:37:44.301Z,8.48
2023-03-12T00:40:18.789Z,6.63
2023-03-12T00:42:52.692Z,8.25
2023-03-12T00:45:21.311Z,6.53
2023-03-12T00:47:54.916Z,6.70
2023-03-12T00:50:22.745Z,5.38
2023-03-12T00:52:51.939Z,6.93
2023-03-12T00:55:22.161Z,5.45
2023-03-12T00:57:53.003Z,4.63
2023-03-12T01:00:21.739Z,4.97
2023-03-12T01:02:53.516Z,4.93
2023-03-12T01:05:29.202Z,4.13
2023-03-12T01:08:05.284Z,4.93
2023-03-12T01:10:45.919Z,4.28
2023-03-12T01:13:41.499Z,5.20
2023-03-12T01:16:16.009Z,4.47
2023-03-12T01:19:12.185Z,4.60
2023-03-12T01:21:48.052Z,5.32
2023-03-12T01:24:18.912Z,6.20
2023-03-12T01:26:50.154Z,5.57
2023-03-12T01:29:19.491Z,5.72
2023-03-12T01:31:55.760Z,5.72
2023-03-12T01:34:30.988Z,5.55
2023-03-12T01:37:03.045Z,5.80
2023-03-12T01:39:36.123Z,6.43
2023-03-12T01:42:07.711Z,6.00
2023-03-12T01:44:55.321Z,5.68
2023-03-12T01:47:33.922Z,5.63
2023-03-12T01:52:50.112Z,5.78
2023-03-12T01:55:24.905Z,5.03
2023-03-12T01:58:08.495Z,6.40
2023-03-12T02:00:40.846Z,5.28
2023-03-12T02:03:22.127Z,5.43
2023-03-12T02:06:22.328Z,6.20
2023-03-12T02:08:57.286Z,6.35
2023-03-12T02:11:27.721Z,5.40
2023-03-12T02:14:04.126Z,5.05
2023-03-12T02:16:37.918Z,4.65
2023-03-12T02:19:25.191Z,4.80
2023-03-12T02:22:01.470Z,6.90
2023-03-12T02:24:45.674Z,6.03
2023-03-12T02:27:20.008Z,6.50
2023-03-12T02:30:02.025Z,5.60
2023-03-12T02:32:41.067Z,6.00
2023-03-12T02:35:24.251Z,4.55
2023-03-12T02:37:59.164Z,5.88
2023-03-12T02:40:47.141Z,4.53
2023-03-12T02:43:32.482Z,6.32
2023-03-12T02:46:05.025Z,5.65
2023-03-12T02:48:38.868Z,5.72
2023-03-12T02:51:20.025Z,5.38
2023-03-12T02:54:26.122Z,6.68
2023-03-12T02:56:54.924Z,5.47
2023-03-12T02:59:29.812Z,5.20
2023-03-12T03:02:09.917Z,4.95
2023-03-12T03:05:02.311Z,5.57
2023-03-12T03:07:33.692Z,5.35
2023-03-12T03:10:04.702Z,4.72
2023-03-12T03:12:42.290Z,5.35
2023-03-12T03:15:12.087Z,5.05
2023-03-12T03:17:43.606Z,5.10
2023-03-12T03:20:18.301Z,5.13
2023-03-12T03:22:52.326Z,5.22
2023-03-12T03:25:23.924Z,5.88
2023-03-12T03:27:59.376Z,4.55
2023-03-12T03:30:29.042Z,5.05
2023-03-12T03:32:59.969Z,4.93
2023-03-12T03:35:29.958Z,5.68
2023-03-12T03:37:59.615Z,5.22
2023-03-12T03:40:30.206Z,4.85
2023-03-12T03:43:04.924Z,5.47
2023-03-12T03:45:38.275Z,5.25
2023-03-12T03:48:12.031Z,5.15
2023-03-12T03:50:43.405Z,5.47
2023-03-12T03:53:16.769Z,5.63
2023-03-12T03:55:46.937Z,5.80
2023-03-12T03:58:21.106Z,5.95
2023-03-12T04:00:58.893Z,6.05
2023-03-12T04:03:29.026Z,6.30
2023-03-12T04:06:01.828Z,12.00
2023-03-12T04:08:37.599Z,6.18
2023-03-12T04:13:46.081Z,6.70
2023-03-12T04:16:48.252Z,6.20
2023-03-12T04:19:18.667Z,6.65
2023-03-12T04:21:52.459Z,6.25
2023-03-12T04:27:57.922Z,7.05
2023-03-12T04:30:26.863Z,5.80
2023-03-12T04:32:57.344Z,5.90
2023-03-12T04:35:31.730Z,6.00
2023-03-12T04:38:12.634Z,6.15
2023-03-12T04:40:45.041Z,6.68
2023-03-12T04:43:16.262Z,8.35
2023-03-12T04:45:48.939Z,6.82
2023-03-12T04:48:23.670Z,6.75
2023-03-12T04:50:57.888Z,6.57
2023-03-12T04:53:27.936Z,6.30
2023-03-12T04:56:06.863Z,6.70
2023-03-12T04:58:41.184Z,6.85
2023-03-12T05:01:39.040Z,6.35
2023-03-12T05:04:18.076Z,6.00
2023-03-12T05:06:53.610Z,7.47
2023-03-12T05:09:23.507Z,7.30
2023-03-12T05:11:54.350Z,8.65
2023-03-12T05:14:28.705Z,8.88
2023-03-12T05:17:09.441Z,9.07
2023-03-12T05:20:07.099Z,10.93
2023-03-12T05:22:41.345Z,12.27
2023-03-12T05:25:14.232Z,10.17
2023-03-12T05:27:44.100Z,8.18
2023-03-12T05:30:13.799Z,7.25
2023-03-12T05:32:48.123Z,7.35
2023-03-12T05:35:24.464Z,7.60
2023-03-12T05:38:00.438Z,9.18
2023-03-12T05:40:36.250Z,6.80
2023-03-12T05:43:04.683Z,8.38
2023-03-12T05:45:34.104Z,8.07
2023-03-12T05:48:02.656Z,7.03
2023-03-12T05:50:35.537Z,8.55
2023-03-12T05:53:05.603Z,7.32
2023-03-12T05:55:47.094Z,7.45
2023-03-12T05:58:31.454Z,6.38
2023-03-12T06:01:14.966Z,7.57
2023-03-12T06:03:43.941Z,5.65
2023-03-12T06:06:11.972Z,6.45
2023-03-12T06:08:42.153Z,6.00
2023-03-12T06:11:35.978Z,5.75
2023-03-12T06:14:08.922Z,6.93
2023-03-12T06:16:51.857Z,6.82
2023-03-12T06:19:34.056Z,7.63
2023-03-12T06:22:13.356Z,7.55
2023-03-12T06:24:45.657Z,6.20
2023-03-12T06:27:21.169Z,5.97
2023-03-12T06:29:53.027Z,5.40
2023-03-12T06:32:49.348Z,5.75
2023-03-12T06:35:21.719Z,5.40
2023-03-12T06:37:50.341Z,6.13
2023-03-12T06:40:25.874Z,6.40
2023-03-12T06:42:56.392Z,5.63
2023-03-12T06:45:26.159Z,5.50
2023-03-12T06:51:14.086Z,6.68
2023-03-12T06:53:50.053Z,5.50
2023-03-12T06:56:19.038Z,5.03
2023-03-12T06:58:46.344Z,5.00
2023-03-12T07:01:14.224Z,5.78
2023-03-12T07:03:41.979Z,6.95
2023-03-12T07:06:17.571Z,6.43
2023-03-12T07:08:45.390Z,6.63
2023-03-12T07:11:13.857Z,5.22
2023-03-12T07:13:41.607Z,6.38
2023-03-12T07:16:09.559Z,6.25
2023-03-12T07:18:37.013Z,6.07
2023-03-12T07:21:10.794Z,5.88
2023-03-12T07:23:40.168Z,6.20
2023-03-12T07:26:08.059Z,7.05
2023-03-12T07:28:35.332Z,6.70
2023-03-12T07:31:05.017Z,21.52
2023-03-12T07:33:34.238Z,7.07
2023-03-12T07:36:03.693Z,6.13
2023-03-12T07:38:36.661Z,6.10
2023-03-12T07:41:32.355Z,6.25
2023-03-12T07:44:05.914Z,5.75
2023-03-12T07:46:38.185Z,6.45
2023-03-12T07:49:08.162Z,7.18
2023-03-12T07:51:41.373Z,7.75
2023-03-12T07:54:09.762Z,6.70
2023-03-12T07:56:40.094Z,7.28
2023-03-12T07:59:20.754Z,6.05
2023-03-12T08:01:48.788Z,6.00
2023-03-12T08:04:18.850Z,7.22
2023-03-12T08:06:56.903Z,5.95
2023-03-12T08:09:24.362Z,5.45
2023-03-12T08:11:52.182Z,6.70
2023-03-12T08:14:19.483Z,9.25
2023-03-12T08:16:47.707Z,7.43
2023-03-12T08:19:15.159Z,7.13
2023-03-12T08:21:47.107Z,12.55
2023-03-12T08:24:16.573Z,16.50
2023-03-12T08:26:48.210Z,6.47
2023-03-12T08:29:21.571Z,5.55
2023-03-12T08:32:04.207Z,12.43
2023-03-12T08:34:35.357Z,14.32
2023-03-12T08:37:06.979Z,14.75
2023-03-12T08:39:39.368Z,27.23
2023-03-12T08:42:22.804Z,7.13
2023-03-12T08:45:45.692Z,6.15
2023-03-12T08:48:27.785Z,18.10
2023-03-12T08:51:04.332Z,5.78
2023-03-12T08:53:57.191Z,8.45
2023-03-12T08:56:47.046Z,5.57
2023-03-12T08:59:42.809Z,4.95
2023-03-12T09:30:10.230Z,6.40
2023-03-12T10:14:57.804Z,7.03
2023-03-12T10:18:13.353Z,5.63
2023-03-12T10:21:39.020Z,5.95
2023-03-12T10:25:07.360Z,5.30
2023-03-12T10:27:39.960Z,17.33
2023-03-12T10:30:23.378Z,5.45
2023-03-12T10:33:03.538Z,5.43
2023-03-12T10:36:02.008Z,5.65
2023-03-12T10:38:34.599Z,6.03
2023-03-12T10:41:14.615Z,6.03
2023-03-12T10:43:44.116Z,5.22
2023-03-12T10:46:42.529Z,4.78
2023-03-12T10:49:32.492Z,5.95
2023-03-12T10:52:23.139Z,5.80
2023-03-12T10:54:57.316Z,6.10
2023-03-12T10:57:41.079Z,4.57
2023-03-12T11:00:22.450Z,4.90
2023-03-12T11:03:04.952Z,8.68
2023-03-12T11:05:52.445Z,14.27
2023-03-12T11:08:30.257Z,15.07
2023-03-12T11:11:00.716Z,5.50
2023-03-12T11:13:43.470Z,5.90
2023-03-12T11:16:21.382Z,5.07
2023-03-12T11:19:06.329Z,5.18
2023-03-12T11:24:10.888Z,5.38
2023-03-12T11:26:58.324Z,4.95
2023-03-12T11:29:31.919Z,4.88
2023-03-12T11:32:18.904Z,5.47
2023-03-12T11:34:50.176Z,5.10
2023-03-12T11:37:57.083Z,6.15
2023-03-12T11:41:03.634Z,5.53
2023-03-12T11:43:53.916Z,5.75
2023-03-12T11:47:11.796Z,5.85
2023-03-12T11:49:49.947Z,6.15
2023-03-12T11:52:39.660Z,6.65
2023-03-12T11:55:34.463Z,5.45
2023-03-12T11:58:21.870Z,5.85
2023-03-12T12:01:15.153Z,5.85
2023-03-12T12:04:16.686Z,6.65
2023-03-12T12:07:11.642Z,5.65
2023-03-12T12:10:24.036Z,7.37
2023-03-12T12:16:39.269Z,8.20
2023-03-12T12:19:24.805Z,17.10
2023-03-12T12:22:31.324Z,5.93
2023-03-12T12:25:33.035Z,6.72
2023-03-12T12:28:30.053Z,5.70
2023-03-12T12:31:36.399Z,6.72
2023-03-12T12:34:33.930Z,11.00
2023-03-12T12:37:47.097Z,11.05
2023-03-12T12:40:42.282Z,7.25
2023-03-12T12:43:28.426Z,6.28
2023-03-12T12:46:11.484Z,35.30
2023-03-12T12:48:50.606Z,39.88
2023-03-12T12:51:26.966Z,32.58
2023-03-12T12:54:01.271Z,19.40
2023-03-12T12:57:01.797Z,11.20
2023-03-12T12:59:52.357Z,10.25
2023-03-12T13:02:23.235Z,27.95
2023-03-12T13:04:51.320Z,26.38
2023-03-12T13:07:21.663Z,9.90
2023-03-12T13:09:53.549Z,16.83
2023-03-12T13:12:33.222Z,11.90
2023-03-12T13:15:03.124Z,11.63
2023-03-12T13:17:56.575Z,12.93
2023-03-12T13:20:57.536Z,10.38
2023-03-12T13:23:52.198Z,8.20
2023-03-12T13:26:58.085Z,11.73
2023-03-12T13:29:36.543Z,10.60
2023-03-12T13:32:06.111Z,7.97
2023-03-12T13:34:46.362Z,7.00
2023-03-12T13:37:28.945Z,27.25
2023-03-12T13:40:02.150Z,13.27
2023-03-12T13:42:40.096Z,16.35
2023-03-12T13:45:25.543Z,12.75
2023-03-12T13:47:58.321Z,11.50
2023-03-12T13:50:26.235Z,12.52
2023-03-12T13:53:33.747Z,8.55
2023-03-12T13:56:18.365Z,7.65
2023-03-12T13:59:00.084Z,8.88
2023-03-12T14:01:31.636Z,8.23
2023-03-12T14:04:04.409Z,8.15
2023-03-12T14:06:50.389Z,9.07
2023-03-12T14:09:30.128Z,8.50
2023-03-12T14:12:20.284Z,9.82
2023-03-12T14:15:22.050Z,8.55
2023-03-12T14:18:00.032Z,7.40
2023-03-12T14:20:30.050Z,6.85
2023-03-12T14:23:06.258Z,7.18
2023-03-12T14:25:37.693Z,7.38
2023-03-12T14:28:17.459Z,6.97
2023-03-12T14:30:56.407Z,9.65
2023-03-12T14:33:26.051Z,13.65
2023-03-12T14:36:04.895Z,18.65
2023-03-12T14:39:26.156Z,14.27
2023-03-12T14:42:06.533Z,12.65
2023-03-12T14:44:37.289Z,7.05
2023-03-12T14:47:10.458Z,7.18
2023-03-12T14:49:46.126Z,8.20
2023-03-12T14:52:28.552Z,8.13
2023-03-12T14:55:01.559Z,9.55
2023-03-12T14:57:33.169Z,10.32
2023-03-12T15:00:28.362Z,8.40
2023-03-12T15:05:50.041Z,9.25
2023-03-12T15:08:21.255Z,11.18
2023-03-12T15:10:57.263Z,12.52
2023-03-12T15:13:31.723Z,37.25
2023-03-12T15:16:06.698Z,21.85
2023-03-12T15:18:41.258Z,43.80
2023-03-12T15:21:15.783Z,11.07
2023-03-12T15:23:46.677Z,7.78
2023-03-12T15:26:20.136Z,8.15
2023-03-12T15:29:20.403Z,8.15
2023-03-12T15:31:53.482Z,8.40
2023-03-12T15:34:38.727Z,7.73
2023-03-12T15:37:39.186Z,11.00
2023-03-12T15:40:22.137Z,17.23
2023-03-12T15:42:59.384Z,10.75
2023-03-12T15:45:38.313Z,9.10
2023-03-12T15:48:35.134Z,8.65
2023-03-12T15:51:38.293Z,8.15
2023-03-12T15:54:27.957Z,20.17
2023-03-12T15:57:34.388Z,21.63
2023-03-12T16:00:21.022Z,12.43
2023-03-12T16:03:19.446Z,9.57
2023-03-12T16:05:48.949Z,9.43
2023-03-12T16:08:26.748Z,10.30
2023-03-12T16:10:55.792Z,13.40
2023-03-12T16:13:33.765Z,11.32
2023-03-12T16:16:05.862Z,10.88
2023-03-12T16:18:40.284Z,10.13
2023-03-12T16:21:09.132Z,10.60
2023-03-12T16:23:40.509Z,11.50
2023-03-12T16:26:15.423Z,11.80
2023-03-12T16:28:46.512Z,12.55
2023-03-12T16:31:16.197Z,12.38
2023-03-12T16:33:46.094Z,12.95
2023-03-12T16:36:23.562Z,15.25
2023-03-12T16:38:51.586Z,14.15
2023-03-12T16:41:21.604Z,26.35
2023-03-12T16:43:55.836Z,15.75
2023-03-12T16:46:23.968Z,16.65
2023-03-12T16:48:54.159Z,28.85
2023-03-12T16:51:34.174Z,22.02
2023-03-12T16:54:10.345Z,23.42
2023-03-12T16:56:48.199Z,34.42
2023-03-12T16:59:32.063Z,34.03
2023-03-12T17:02:30.817Z,33.65
2023-03-12T17:05:05.153Z,35.03
2023-03-12T17:07:41.109Z,28.00
2023-03-12T17:10:11.904Z,27.90
2023-03-12T17:12:48.275Z,30.88
2023-03-12T17:15:45.553Z,38.33
2023-03-12T17:18:17.712Z,53.03
2023-03-12T17:20:49.492Z,41.60
2023-03-12T17:23:18.238Z,44.92
2023-03-12T17:25:45.983Z,38.00
2023-03-12T17:28:17.158Z,42.38
2023-03-12T17:30:47.909Z,37.03
2023-03-12T17:33:20.902Z,30.77
2023-03-12T17:36:11.095Z,29.58
2023-03-12T17:38:38.568Z,36.00
2023-03-12T17:41:19.855Z,62.78
2023-03-12T17:44:01.876Z,50.78
2023-03-12T17:46:33.185Z,52.05
2023-03-12T17:49:09.861Z,48.95
2023-03-12T17:51:38.933Z,41.65
2023-03-12T17:54:37.106Z,46.70
2023-03-12T17:57:10.122Z,52.97
2023-03-12T17:59:44.025Z,50.65
2023-03-12T18:02:16.707Z,56.13
2023-03-12T18:04:45.618Z,60.15
2023-03-12T18:07:19.412Z,56.85
2023-03-12T18:09:50.137Z,51.40
2023-03-12T18:12:24.326Z,44.92
2023-03-12T18:15:08.664Z,36.60
2023-03-12T18:17:40.034Z,36.13
2023-03-12T18:20:37.683Z,46.33
2023-03-12T18:23:08.984Z,28.80
2023-03-12T18:25:46.776Z,40.95
2023-03-12T18:28:19.383Z,58.30
2023-03-12T18:31:16.820Z,54.28
2023-03-12T18:33:55.788Z,55.72
2023-03-12T18:36:27.770Z,56.35
2023-03-12T18:39:05.102Z,50.45
2023-03-12T18:41:36.647Z,43.05
2023-03-12T18:44:06.907Z,49.97
2023-03-12T18:46:39.229Z,70.28
2023-03-12T18:49:12.684Z,68.20
2023-03-12T18:51:41.959Z,68.55
2023-03-12T18:54:10.850Z,76.45
2023-03-12T18:56:42.139Z,82.72
2023-03-12T18:59:17.194Z,77.95
2023-03-12T19:01:48.277Z,75.80
2023-03-12T19:04:22.016Z,68.32
2023-03-12T19:06:59.598Z,66.07
2023-03-12T19:09:36.986Z,56.70
2023-03-12T19:12:39.437Z,49.28
2023-03-12T19:16:02.011Z,30.77
2023-03-12T19:18:34.434Z,34.42
2023-03-12T19:21:09.752Z,126.90
2023-03-12T19:23:40.802Z,38.05
2023-03-12T19:26:18.301Z,41.28
2023-03-12T19:28:55.369Z,48.78
2023-03-12T19:31:34.133Z,49.13
2023-03-12T19:34:04.982Z,65.90
2023-03-12T19:36:37.737Z,72.43
2023-03-12T19:39:44.482Z,57.85
2023-03-12T19:42:19.051Z,41.75
2023-03-12T19:44:52.107Z,66.72
2023-03-12T19:47:24.151Z,72.22
2023-03-12T19:49:53.707Z,102.70
2023-03-12T19:52:31.929Z,89.35
2023-03-12T19:55:05.678Z,76.88
2023-03-12T19:57:37.207Z,68.78
2023-03-12T20:00:38.468Z,50.28
2023-03-12T20:03:13.501Z,64.45
2023-03-12T20:05:47.776Z,65.40
2023-03-12T20:08:22.033Z,64.88
2023-03-12T20:10:53.284Z,67.63
2023-03-12T20:13:29.799Z,67.32
2023-03-12T20:16:04.815Z,71.05
2023-03-12T20:19:05.780Z,75.25
2023-03-12T20:21:41.221Z,86.20
2023-03-12T20:24:21.637Z,87.10
2023-03-12T20:26:55.766Z,82.13
2023-03-12T20:32:35.015Z,81.00
2023-03-12T20:35:09.572Z,93.20
2023-03-12T20:37:42.018Z,79.63
2023-03-12T20:40:14.923Z,81.22
2023-03-12T20:42:48.281Z,81.55
2023-03-12T20:45:21.175Z,85.55
2023-03-12T20:47:53.824Z,78.40
2023-03-12T20:50:25.109Z,81.93
2023-03-12T20:52:58.127Z,82.00
2023-03-12T20:55:34.080Z,80.30
2023-03-12T20:58:03.787Z,81.53
2023-03-12T21:00:36.492Z,75.50
2023-03-12T21:03:06.054Z,75.22
2023-03-12T21:05:36.304Z,85.07
2023-03-12T21:09:27.841Z,92.97
2023-03-12T21:11:58.806Z,81.40
2023-03-12T21:14:30.230Z,89.28
2023-03-12T21:17:23.422Z,90.25
2023-03-12T21:22:33.150Z,114.93
2023-03-12T21:25:08.181Z,132.93
2023-03-12T21:28:06.410Z,108.65
2023-03-12T21:31:05.597Z,76.78
2023-03-12T21:34:47.834Z,90.65
2023-03-12T21:37:21.036Z,118.97
2023-03-12T21:40:09.015Z,63.65
2023-03-12T21:43:15.999Z,60.70
2023-03-12T21:45:50.061Z,45.67
2023-03-12T21:48:25.640Z,48.22
2023-03-12T21:51:01.702Z,43.33
2023-03-12T21:53:41.570Z,44.45
2023-03-12T21:56:17.644Z,41.35
2023-03-12T21:58:50.786Z,41.55
2023-03-12T22:01:21.227Z,40.42
2023-03-12T22:03:57.281Z,42.20
2023-03-12T22:06:29.779Z,45.75
2023-03-12T22:09:25.973Z,46.80
2023-03-12T22:12:24.485Z,45.13
2023-03-12T22:15:04.041Z,44.70
2023-03-12T22:17:37.956Z,42.53
2023-03-12T22:20:44.255Z,46.40
2023-03-12T22:23:39.238Z,56.92
2023-03-12T22:26:20.407Z,53.92
2023-03-12T22:28:51.199Z,55.90
2023-03-12T22:31:48.986Z,48.08
2023-03-12T22:34:28.965Z,48.42
2023-03-12T22:37:08.230Z,49.55
2023-03-12T22:39:43.811Z,45.63
2023-03-12T22:42:15.525Z,48.33
2023-03-12T22:44:48.632Z,53.90
2023-03-12T22:48:00.575Z,42.03
2023-03-12T22:50:34.525Z,39.63
2023-03-12T22:53:06.388Z,38.85
2023-03-12T22:55:40.430Z,34.03
2023-03-12T22:58:11.998Z,30.75
2023-03-12T23:00:41.973Z,36.03
2023-03-12T23:03:39.399Z,45.25
2023-03-12T23:06:12.119Z,34.05
2023-03-12T23:08:43.922Z,49.38
2023-03-12T23:11:18.212Z,48.53
2023-03-12T23:13:54.018Z,55.70
2023-03-12T23:17:06.490Z,52.70
2023-03-12T23:19:40.324Z,46.40
2023-03-12T23:22:11.404Z,53.80
2023-03-12T23:24:40.498Z,115.13
2023-03-12T23:27:11.134Z,204.45
2023-03-12T23:29:39.166Z,98.63
2023-03-12T23:32:09.366Z,48.85
2023-03-12T23:34:39.060Z,63.47
2023-03-12T23:37:10.308Z,61.83
2023-03-12T23:39:53.434Z,67.57
2023-03-12T23:42:27.358Z,85.00
2023-03-12T23:45:00.923Z,83.38
2023-03-12T23:47:32.074Z,69.15
2023-03-12T23:50:06.376Z,66.32
2023-03-12T23:52:37.706Z,59.38
2023-03-12T23:55:07.174Z,60.92
2023-03-12T23:57:36.246Z,59.75
